Arabi, Georgia
Current Conditions -  °F | °C
As of 2:55 AM on Monday 22 Dec 2014 (Local Time) from KCKF Reporting Station
Drizzle Drizzle  
Wind Chill: 47°   Ceiling: 400
Heat Index: 49°   Visibility: 4mi
Dew Point: 47°   Wind: 5mph
Humidity: 95%   Direction: 70°ENE
Pressure: 30.04"   Gusts: NA
Location:  31.83°N, 83.74°W
Report Text: KCKF 220755Z AUTO 07004KT 4SM -DZ OVC004 09/09 A3004 RMK AO2 T00920085
Loading
Personal Weather Stations






























Interactive Weather Map New forecast layout! Learn more

10-Day Weather Forecast

Advertisements
Track Severe Weather on mobile